createdAt,value
2023-02-09T00:00:25.376Z,58.68
2023-02-09T00:01:31.025Z,57.50
2023-02-09T00:02:33.836Z,58.33
2023-02-09T00:03:37.144Z,58.87
2023-02-09T00:04:39.612Z,59.02
2023-02-09T00:05:41.966Z,57.52
2023-02-09T00:06:44.543Z,58.70
2023-02-09T00:07:46.976Z,58.17
2023-02-09T00:08:49.437Z,56.40
2023-02-09T00:09:52.402Z,57.52
2023-02-09T00:10:54.963Z,57.38
2023-02-09T00:12:15.791Z,58.48
2023-02-09T00:13:23.875Z,57.47
2023-02-09T00:14:26.916Z,59.95
2023-02-09T00:15:29.284Z,62.07
2023-02-09T00:16:31.696Z,60.73
2023-02-09T00:17:36.039Z,60.08
2023-02-09T00:18:38.436Z,60.58
2023-02-09T00:19:40.863Z,63.12
2023-02-09T00:20:46.530Z,63.73
2023-02-09T00:21:49.077Z,61.55
2023-02-09T00:22:51.512Z,60.90
2023-02-09T00:23:53.857Z,60.83
2023-02-09T00:24:57.406Z,62.97
2023-02-09T00:26:05.574Z,62.12
2023-02-09T00:27:08.016Z,63.37
2023-02-09T00:28:10.423Z,61.92
2023-02-09T00:29:13.199Z,60.58
2023-02-09T00:30:15.635Z,60.93
2023-02-09T00:31:18.134Z,61.48
2023-02-09T00:32:20.661Z,61.28
2023-02-09T00:33:23.304Z,60.57
2023-02-09T00:34:25.660Z,59.35
2023-02-09T00:35:28.014Z,59.92
2023-02-09T00:36:30.449Z,62.88
2023-02-09T00:37:35.092Z,62.15
2023-02-09T00:38:37.585Z,59.72
2023-02-09T00:39:39.911Z,60.48
2023-02-09T00:40:42.517Z,58.38
2023-02-09T00:42:03.303Z,59.50
2023-02-09T00:43:06.705Z,58.63
2023-02-09T00:44:10.135Z,58.68
2023-02-09T00:45:13.777Z,60.57
2023-02-09T00:46:16.242Z,60.05
2023-02-09T00:47:18.829Z,59.90
2023-02-09T00:48:22.139Z,58.43
2023-02-09T00:49:24.516Z,57.63
2023-02-09T00:50:28.021Z,57.35
2023-02-09T00:51:30.574Z,58.30
2023-02-09T00:52:33.469Z,58.02
2023-02-09T00:53:35.876Z,58.97
2023-02-09T00:54:38.333Z,57.75
2023-02-09T00:55:40.743Z,57.68
2023-02-09T00:56:43.995Z,57.37
2023-02-09T00:57:46.341Z,59.23
2023-02-09T00:58:48.666Z,59.05
2023-02-09T00:59:51.052Z,59.13
2023-02-09T01:00:53.404Z,59.50
2023-02-09T01:01:55.756Z,57.78
2023-02-09T01:02:58.680Z,57.68
2023-02-09T01:04:01.069Z,58.28
2023-02-09T01:05:03.587Z,58.43
2023-02-09T01:06:08.583Z,57.83
2023-02-09T01:07:10.925Z,57.43
2023-02-09T01:08:13.348Z,59.02
2023-02-09T01:09:15.788Z,60.80
2023-02-09T01:10:18.279Z,59.72
2023-02-09T01:11:21.292Z,62.00
2023-02-09T01:12:23.838Z,77.87
2023-02-09T01:13:26.306Z,72.28
2023-02-09T01:14:28.878Z,66.20
2023-02-09T01:15:31.275Z,65.90
2023-02-09T01:16:33.733Z,68.52
2023-02-09T01:17:36.948Z,80.43
2023-02-09T01:18:39.642Z,83.12
2023-02-09T01:19:42.074Z,79.57
2023-02-09T01:20:44.736Z,68.48
2023-02-09T01:21:48.248Z,66.35
2023-02-09T01:22:50.659Z,62.43
2023-02-09T01:23:53.109Z,61.05
2023-02-09T01:24:55.591Z,62.53
2023-02-09T01:26:02.750Z,67.15
2023-02-09T01:27:05.091Z,62.98
2023-02-09T01:28:07.463Z,60.77
2023-02-09T01:29:17.611Z,62.88
2023-02-09T01:30:20.049Z,65.32
2023-02-09T01:31:31.828Z,61.95
2023-02-09T01:32:36.207Z,62.92
2023-02-09T01:33:38.494Z,62.27
2023-02-09T01:34:40.928Z,63.70
2023-02-09T01:35:43.431Z,67.00
2023-02-09T01:36:46.337Z,66.05
2023-02-09T01:37:48.692Z,64.52
2023-02-09T01:38:51.519Z,64.42
2023-02-09T01:39:53.878Z,63.87
2023-02-09T01:40:56.262Z,63.32
2023-02-09T01:41:58.619Z,62.95
2023-02-09T01:43:00.966Z,63.20
2023-02-09T01:44:06.768Z,63.62
2023-02-09T01:45:21.241Z,65.63
2023-02-09T01:46:25.967Z,71.20
2023-02-09T01:47:28.637Z,69.33
2023-02-09T01:48:31.275Z,71.82
2023-02-09T01:49:33.618Z,75.12
2023-02-09T01:50:41.696Z,80.70
2023-02-09T01:51:57.547Z,78.83
2023-02-09T01:53:00.541Z,81.52
2023-02-09T01:54:14.025Z,81.95
2023-02-09T01:55:20.206Z,81.52
2023-02-09T01:56:28.734Z,79.25
2023-02-09T01:57:34.667Z,77.87
2023-02-09T01:58:37.150Z,74.83
2023-02-09T01:59:42.453Z,74.02
2023-02-09T02:00:46.049Z,71.00
2023-02-09T02:01:49.480Z,65.92
2023-02-09T02:02:56.524Z,67.40
2023-02-09T02:03:59.113Z,66.72
2023-02-09T02:05:02.857Z,67.23
2023-02-09T02:06:10.064Z,67.88
2023-02-09T02:07:25.786Z,68.70
2023-02-09T02:08:45.722Z,68.05
2023-02-09T02:09:48.179Z,68.60
2023-02-09T02:10:52.662Z,67.22
2023-02-09T02:11:55.500Z,66.88
2023-02-09T02:12:57.968Z,68.42
2023-02-09T02:14:00.366Z,66.02
2023-02-09T02:15:03.112Z,63.35
2023-02-09T02:16:26.958Z,60.98
2023-02-09T02:17:39.489Z,61.23
2023-02-09T02:18:59.884Z,59.57
2023-02-09T02:20:34.295Z,59.13
2023-02-09T02:22:01.427Z,59.57
2023-02-09T02:23:18.045Z,59.72
2023-02-09T02:24:20.328Z,61.52
2023-02-09T02:26:03.357Z,60.98
2023-02-09T02:27:10.751Z,60.37
2023-02-09T02:28:33.947Z,61.92
2023-02-09T02:29:42.345Z,63.48
2023-02-09T02:30:45.172Z,63.07
2023-02-09T02:32:21.707Z,62.87
2023-02-09T02:33:33.202Z,61.02
2023-02-09T02:34:41.433Z,62.72
2023-02-09T02:35:51.499Z,61.82
2023-02-09T02:36:59.568Z,58.95
2023-02-09T02:38:25.282Z,62.27
2023-02-09T02:39:39.712Z,63.15
2023-02-09T02:40:50.729Z,62.80
2023-02-09T02:42:14.534Z,63.03
2023-02-09T02:43:24.112Z,61.63
2023-02-09T02:44:27.937Z,61.17
2023-02-09T02:45:43.684Z,60.98
2023-02-09T02:46:49.306Z,62.70
2023-02-09T02:48:14.657Z,66.33
2023-02-09T02:49:34.752Z,67.92
2023-02-09T02:50:42.188Z,67.03
2023-02-09T02:51:47.017Z,67.40
2023-02-09T02:52:54.121Z,66.00
2023-02-09T02:53:58.586Z,68.12
2023-02-09T02:55:06.273Z,69.60
2023-02-09T02:56:23.605Z,69.82
2023-02-09T02:57:31.060Z,68.17
2023-02-09T02:58:36.589Z,67.85
2023-02-09T02:59:44.992Z,67.42
2023-02-09T03:00:51.845Z,65.62
2023-02-09T03:02:06.391Z,64.45
2023-02-09T03:03:14.498Z,63.57
2023-02-09T03:04:18.201Z,64.35
2023-02-09T03:05:23.418Z,66.13
2023-02-09T03:06:25.843Z,64.02
2023-02-09T03:07:28.204Z,64.95
2023-02-09T03:08:30.658Z,64.70
2023-02-09T03:09:33.956Z,64.77
2023-02-09T03:10:39.827Z,64.28
2023-02-09T03:11:47.574Z,62.65
2023-02-09T03:12:58.193Z,61.63
2023-02-09T03:14:20.890Z,62.97
2023-02-09T03:15:45.838Z,61.33
2023-02-09T03:17:15.918Z,61.65
2023-02-09T03:19:03.034Z,62.37
2023-02-09T03:20:17.428Z,61.43
2023-02-09T03:21:32.210Z,61.38
2023-02-09T03:22:42.155Z,60.83
2023-02-09T03:23:54.864Z,61.42
2023-02-09T03:25:16.250Z,61.85
2023-02-09T03:26:25.593Z,60.43
2023-02-09T03:27:34.137Z,62.70
2023-02-09T03:28:40.244Z,61.92
2023-02-09T03:29:46.335Z,62.12
2023-02-09T03:30:50.234Z,60.43
2023-02-09T03:31:53.698Z,59.97
2023-02-09T03:32:56.492Z,60.90
2023-02-09T03:34:00.647Z,60.33
2023-02-09T03:35:03.074Z,59.12
2023-02-09T03:36:10.126Z,61.32
2023-02-09T03:37:12.663Z,61.13
2023-02-09T03:38:15.036Z,60.03
2023-02-09T03:39:17.442Z,60.37
2023-02-09T03:40:20.020Z,60.22
2023-02-09T03:41:22.395Z,60.63
2023-02-09T03:42:24.756Z,60.50
2023-02-09T03:43:47.103Z,60.52
2023-02-09T03:44:49.512Z,59.88
2023-02-09T03:45:51.865Z,59.00
2023-02-09T03:47:05.855Z,60.95
2023-02-09T03:48:08.475Z,61.50
2023-02-09T03:49:14.933Z,62.35
2023-02-09T03:50:17.485Z,62.50
2023-02-09T03:51:19.807Z,60.87
2023-02-09T03:52:22.151Z,62.60
2023-02-09T03:53:24.526Z,64.90
2023-02-09T03:54:30.763Z,64.62
2023-02-09T03:55:33.720Z,62.90
2023-02-09T03:56:37.905Z,62.10
2023-02-09T03:57:40.245Z,61.93
2023-02-09T03:58:42.646Z,62.15
2023-02-09T03:59:44.992Z,64.55
2023-02-09T04:00:47.553Z,62.90
2023-02-09T04:01:50.073Z,61.95
2023-02-09T04:02:52.490Z,61.05
2023-02-09T04:03:54.869Z,59.28
2023-02-09T04:04:57.259Z,60.08
2023-02-09T04:06:00.281Z,59.37
2023-02-09T04:07:03.305Z,59.87
2023-02-09T04:08:05.700Z,60.02
2023-02-09T04:09:09.449Z,60.15
2023-02-09T04:10:12.110Z,60.82
2023-02-09T04:11:14.469Z,58.20
2023-02-09T04:12:16.840Z,57.17
2023-02-09T04:13:19.184Z,59.58
2023-02-09T04:14:21.569Z,58.82
2023-02-09T04:15:23.996Z,59.60
2023-02-09T04:16:26.561Z,66.97
2023-02-09T04:17:31.216Z,65.88
2023-02-09T04:18:33.545Z,62.62
2023-02-09T04:19:35.877Z,60.68
2023-02-09T04:20:38.255Z,60.65
2023-02-09T04:21:40.716Z,61.02
2023-02-09T04:22:43.043Z,58.70
2023-02-09T04:23:45.674Z,61.85
2023-02-09T04:24:47.998Z,59.08
2023-02-09T04:25:50.371Z,58.20
2023-02-09T04:26:53.063Z,57.33
2023-02-09T04:27:55.505Z,58.83
2023-02-09T04:28:57.978Z,58.03
2023-02-09T04:30:00.380Z,58.73
2023-02-09T04:31:02.959Z,57.37
2023-02-09T04:32:05.725Z,58.90
2023-02-09T04:33:08.136Z,60.88
2023-02-09T04:34:10.527Z,62.90
2023-02-09T04:35:12.888Z,63.57
2023-02-09T04:36:15.735Z,64.28
2023-02-09T04:37:18.128Z,65.97
2023-02-09T04:38:21.650Z,68.77
2023-02-09T04:39:24.056Z,68.72
2023-02-09T04:40:26.425Z,67.43
2023-02-09T04:41:28.856Z,71.42
2023-02-09T04:42:32.465Z,70.57
2023-02-09T04:43:34.885Z,68.30
2023-02-09T04:44:37.267Z,70.90
2023-02-09T04:45:40.430Z,78.90
2023-02-09T04:46:44.157Z,83.00
2023-02-09T04:47:48.009Z,75.43
2023-02-09T04:48:50.374Z,77.15
2023-02-09T04:49:52.838Z,81.23
2023-02-09T04:50:55.284Z,86.80
2023-02-09T04:51:57.665Z,86.52
2023-02-09T04:53:00.793Z,87.85
2023-02-09T04:54:03.325Z,84.83
2023-02-09T04:55:06.047Z,76.90
2023-02-09T04:56:08.907Z,75.43
2023-02-09T04:57:29.931Z,75.03
2023-02-09T04:58:50.732Z,69.42
2023-02-09T04:59:53.222Z,66.12
2023-02-09T05:00:56.404Z,67.17
2023-02-09T05:01:58.845Z,68.20
2023-02-09T05:03:01.279Z,66.55
2023-02-09T05:04:03.718Z,66.27
2023-02-09T05:05:06.297Z,68.50
2023-02-09T05:06:08.674Z,66.90
2023-02-09T05:07:11.061Z,65.88
2023-02-09T05:08:13.393Z,63.17
2023-02-09T05:09:15.813Z,62.98
2023-02-09T05:10:18.257Z,64.95
2023-02-09T05:11:20.641Z,69.25
2023-02-09T05:12:22.925Z,67.30
2023-02-09T05:13:26.069Z,68.55
2023-02-09T05:14:28.515Z,66.50
2023-02-09T05:15:30.930Z,65.38
2023-02-09T05:16:33.309Z,66.40
2023-02-09T05:17:35.784Z,66.23
2023-02-09T05:18:38.157Z,67.73
2023-02-09T05:19:40.515Z,66.23
2023-02-09T05:20:44.485Z,67.80
2023-02-09T05:21:47.021Z,66.97
2023-02-09T05:22:50.201Z,69.55
2023-02-09T05:23:52.701Z,70.38
2023-02-09T05:24:55.223Z,68.78
2023-02-09T05:25:57.578Z,77.52
2023-02-09T05:26:59.918Z,100.93
2023-02-09T05:28:03.153Z,89.60
2023-02-09T05:29:05.541Z,81.35
2023-02-09T05:30:08.504Z,87.55
2023-02-09T05:31:10.894Z,67.63
2023-02-09T05:32:13.345Z,65.60
2023-02-09T05:33:15.717Z,63.67
2023-02-09T05:34:18.090Z,71.32
2023-02-09T05:35:20.597Z,101.58
2023-02-09T05:36:23.012Z,113.98
2023-02-09T05:37:25.400Z,93.78
2023-02-09T05:38:27.812Z,69.47
2023-02-09T05:39:30.162Z,67.18
2023-02-09T05:40:32.593Z,63.48
2023-02-09T05:41:53.329Z,71.63
2023-02-09T05:42:55.774Z,89.17
2023-02-09T05:43:58.616Z,100.60
2023-02-09T05:45:00.981Z,109.52
2023-02-09T05:46:03.783Z,116.00
2023-02-09T05:47:07.283Z,120.23
2023-02-09T05:48:09.685Z,122.80
2023-02-09T05:49:12.058Z,117.97
2023-02-09T05:50:14.701Z,138.77
2023-02-09T05:51:17.105Z,380.33
2023-02-09T05:52:20.224Z,472.98
2023-02-09T05:53:22.625Z,506.52
2023-02-09T05:54:25.035Z,361.97
2023-02-09T05:55:27.934Z,239.50
2023-02-09T05:56:30.302Z,199.70
2023-02-09T05:57:32.863Z,219.93
2023-02-09T05:58:35.269Z,224.40
2023-02-09T05:59:37.606Z,198.00
2023-02-09T06:00:39.947Z,172.97
2023-02-09T06:01:42.318Z,193.15
2023-02-09T06:02:44.801Z,220.65
2023-02-09T06:03:47.209Z,232.35
2023-02-09T06:04:49.578Z,259.40
2023-02-09T06:05:51.985Z,221.12
2023-02-09T06:06:55.091Z,176.08
2023-02-09T06:07:58.073Z,165.38
2023-02-09T06:09:00.474Z,156.50
2023-02-09T06:10:02.822Z,154.78
2023-02-09T06:11:06.273Z,148.78
2023-02-09T06:12:08.716Z,128.88
2023-02-09T06:13:11.098Z,129.00
2023-02-09T06:14:13.619Z,124.75
2023-02-09T06:15:16.543Z,111.08
2023-02-09T06:16:18.983Z,114.32
2023-02-09T06:18:02.927Z,125.33
2023-02-09T06:19:05.319Z,107.83
2023-02-09T06:20:08.051Z,103.22
2023-02-09T06:21:11.736Z,90.35
2023-02-09T06:22:14.136Z,86.97
2023-02-09T06:23:16.535Z,89.55
2023-02-09T06:24:18.918Z,90.22
2023-02-09T06:25:21.554Z,87.23
2023-02-09T06:26:24.124Z,90.98
2023-02-09T06:27:26.541Z,84.40
2023-02-09T06:28:28.973Z,77.52
2023-02-09T06:29:31.633Z,80.43
2023-02-09T06:30:33.960Z,77.57
2023-02-09T06:31:37.386Z,75.10
2023-02-09T06:32:39.819Z,75.40
2023-02-09T06:33:42.555Z,75.93
2023-02-09T06:34:44.901Z,76.82
2023-02-09T06:35:47.263Z,80.37
2023-02-09T06:36:49.615Z,83.42
2023-02-09T06:37:52.011Z,89.97
2023-02-09T06:38:54.643Z,91.65
2023-02-09T06:39:57.386Z,88.20
2023-02-09T06:41:00.149Z,82.55
2023-02-09T06:42:04.622Z,81.92
2023-02-09T06:43:07.099Z,83.13
2023-02-09T06:44:10.115Z,81.82
2023-02-09T06:45:15.119Z,80.38
2023-02-09T06:46:17.604Z,83.95
2023-02-09T06:47:20.021Z,83.35
2023-02-09T06:48:22.668Z,81.87
2023-02-09T06:49:26.637Z,80.43
2023-02-09T06:50:29.780Z,75.25
2023-02-09T06:51:32.380Z,73.13
2023-02-09T06:52:34.961Z,73.60
2023-02-09T06:53:38.531Z,70.52
2023-02-09T06:54:44.280Z,68.70
2023-02-09T06:58:19.959Z,66.68
2023-02-09T07:01:44.984Z,65.07
2023-02-09T07:02:47.906Z,66.25
2023-02-09T07:03:50.542Z,72.58
2023-02-09T07:04:52.969Z,73.32
2023-02-09T07:05:55.398Z,76.40
2023-02-09T07:06:57.862Z,80.00
2023-02-09T07:08:00.296Z,81.67
2023-02-09T07:09:02.723Z,93.93
2023-02-09T07:10:07.104Z,104.23
2023-02-09T07:11:12.052Z,114.62
2023-02-09T07:12:14.511Z,125.45
2023-02-09T07:13:16.941Z,112.95
2023-02-09T07:14:19.403Z,95.77
2023-02-09T07:15:21.835Z,92.85
2023-02-09T07:16:24.304Z,94.18
2023-02-09T07:17:30.030Z,87.32
2023-02-09T07:18:32.506Z,82.58
2023-02-09T07:19:34.898Z,81.07
2023-02-09T07:20:37.300Z,76.63
2023-02-09T07:21:39.735Z,73.35
2023-02-09T07:22:44.759Z,74.05
2023-02-09T07:23:48.974Z,72.67
2023-02-09T07:24:52.054Z,70.73
2023-02-09T07:25:54.687Z,70.25
2023-02-09T07:26:57.044Z,68.78
2023-02-09T07:27:59.508Z,68.85
2023-02-09T07:29:02.159Z,68.65
2023-02-09T07:30:04.735Z,68.63
2023-02-09T07:31:09.805Z,70.23
2023-02-09T07:32:12.683Z,69.78
2023-02-09T07:33:15.120Z,71.18
2023-02-09T07:34:17.555Z,75.18
2023-02-09T07:35:19.934Z,74.87
2023-02-09T07:36:22.360Z,74.12
2023-02-09T07:37:24.890Z,72.48
2023-02-09T07:38:27.443Z,71.47
2023-02-09T07:39:30.080Z,69.87
2023-02-09T07:40:32.521Z,70.45
2023-02-09T07:41:35.105Z,72.22
2023-02-09T07:42:37.541Z,67.12
2023-02-09T07:43:39.933Z,68.10
2023-02-09T07:44:42.693Z,67.10
2023-02-09T07:45:45.372Z,66.18
2023-02-09T07:46:48.277Z,67.08
2023-02-09T07:47:50.761Z,67.25
2023-02-09T07:48:54.141Z,69.43
2023-02-09T07:49:57.247Z,68.52
2023-02-09T07:51:00.951Z,67.63
2023-02-09T07:52:05.038Z,67.43
2023-02-09T07:53:10.328Z,66.83
2023-02-09T07:54:13.830Z,67.47
2023-02-09T07:55:16.244Z,67.85
2023-02-09T07:56:22.079Z,64.10
2023-02-09T07:57:24.493Z,61.63
2023-02-09T07:58:26.918Z,61.58
2023-02-09T07:59:29.379Z,61.52
2023-02-09T08:00:31.875Z,62.07
2023-02-09T08:01:34.667Z,61.73
2023-02-09T08:02:38.467Z,61.80
2023-02-09T08:03:43.442Z,62.57
2023-02-09T08:04:46.032Z,60.22
2023-02-09T08:06:10.256Z,60.78
2023-02-09T08:07:12.634Z,62.12
2023-02-09T08:08:15.119Z,60.22
2023-02-09T08:09:17.751Z,60.93
2023-02-09T08:10:20.152Z,60.78
2023-02-09T08:11:31.056Z,61.08
2023-02-09T08:12:52.145Z,62.53
2023-02-09T08:13:57.238Z,61.65
2023-02-09T08:14:59.786Z,61.27
2023-02-09T08:16:05.242Z,60.72
2023-02-09T08:17:20.113Z,62.87
2023-02-09T08:18:25.984Z,64.28
2023-02-09T08:19:28.725Z,64.40
2023-02-09T08:20:32.518Z,64.60
2023-02-09T08:21:38.326Z,64.30
2023-02-09T08:22:43.974Z,63.77
2023-02-09T08:23:51.053Z,64.53
2023-02-09T08:24:53.717Z,63.90
2023-02-09T08:25:57.312Z,63.85
2023-02-09T08:27:00.348Z,67.72
2023-02-09T08:28:03.773Z,66.38
2023-02-09T08:29:08.356Z,62.75
2023-02-09T08:30:12.725Z,59.18
2023-02-09T08:31:18.345Z,59.83
2023-02-09T08:32:20.857Z,60.72
2023-02-09T08:33:23.351Z,59.82
2023-02-09T08:34:25.733Z,60.40
2023-02-09T08:35:30.310Z,59.77
2023-02-09T08:36:34.498Z,58.77
2023-02-09T08:37:37.195Z,60.83
2023-02-09T08:38:40.097Z,58.67
2023-02-09T08:39:42.594Z,59.00
2023-02-09T08:40:45.669Z,59.80
2023-02-09T08:41:48.102Z,59.38
2023-02-09T08:42:55.114Z,60.52
2023-02-09T08:43:59.190Z,61.13
2023-02-09T08:45:01.649Z,59.50
2023-02-09T08:46:08.356Z,62.07
2023-02-09T08:47:17.837Z,60.05
2023-02-09T08:48:20.275Z,61.53
2023-02-09T08:49:23.536Z,59.77
2023-02-09T08:50:26.966Z,60.72
2023-02-09T08:51:29.931Z,60.18
2023-02-09T08:52:32.768Z,60.25
2023-02-09T08:53:36.115Z,59.32
2023-02-09T08:54:38.575Z,58.03
2023-02-09T08:55:40.989Z,58.25
2023-02-09T08:56:44.261Z,59.87
2023-02-09T08:57:46.739Z,61.23
2023-02-09T08:58:49.899Z,61.73
2023-02-09T08:59:52.232Z,59.57
2023-02-09T09:01:00.124Z,60.18
2023-02-09T09:02:02.635Z,61.88
2023-02-09T09:03:06.125Z,60.22
2023-02-09T09:04:08.844Z,60.10
2023-02-09T09:05:11.844Z,59.45
2023-02-09T09:06:14.204Z,57.65
2023-02-09T09:07:16.750Z,55.63
2023-02-09T09:08:19.134Z,56.03
2023-02-09T09:09:21.717Z,57.52
2023-02-09T09:10:24.172Z,57.72
2023-02-09T09:11:26.570Z,56.82
2023-02-09T09:12:30.457Z,57.53
2023-02-09T09:13:33.624Z,56.70
2023-02-09T09:14:36.515Z,55.37
2023-02-09T09:15:38.862Z,55.48
2023-02-09T09:16:41.245Z,55.37
2023-02-09T09:17:43.756Z,56.17
2023-02-09T09:18:46.325Z,56.83
2023-02-09T09:19:48.932Z,55.97
2023-02-09T09:20:52.416Z,56.80
2023-02-09T09:21:55.693Z,56.07
2023-02-09T09:22:59.605Z,56.18
2023-02-09T09:24:02.310Z,58.52
2023-02-09T09:25:05.622Z,57.57
2023-02-09T09:26:08.294Z,59.17
2023-02-09T09:27:11.204Z,60.05
2023-02-09T09:28:13.949Z,59.93
2023-02-09T09:29:17.391Z,58.13
2023-02-09T09:30:20.020Z,60.58
2023-02-09T09:31:22.715Z,62.22
2023-02-09T09:32:25.708Z,61.82
2023-02-09T09:33:28.503Z,62.10
2023-02-09T09:34:31.092Z,61.95
2023-02-09T09:35:33.624Z,63.52
2023-02-09T09:36:36.055Z,64.57
2023-02-09T09:37:38.874Z,63.45
2023-02-09T09:38:41.600Z,63.73
2023-02-09T09:39:44.726Z,63.93
2023-02-09T09:40:47.279Z,63.00
2023-02-09T09:41:56.848Z,61.98
2023-02-09T09:45:39.591Z,63.60
2023-02-09T09:46:47.624Z,61.48
2023-02-09T09:48:02.937Z,61.77
2023-02-09T09:49:07.628Z,60.35
2023-02-09T09:50:30.108Z,58.57
2023-02-09T09:51:41.787Z,58.00
2023-02-09T09:52:56.441Z,59.98
2023-02-09T09:53:59.797Z,60.35
2023-02-09T09:55:07.499Z,58.85
2023-02-09T09:56:11.552Z,60.38
2023-02-09T09:57:29.072Z,59.90
2023-02-09T09:58:33.150Z,58.13
2023-02-09T09:59:38.835Z,55.05
2023-02-09T10:00:42.803Z,52.45
2023-02-09T10:01:45.683Z,45.80
2023-02-09T10:02:48.478Z,43.27
2023-02-09T10:03:50.878Z,43.28
2023-02-09T10:05:10.928Z,43.38
2023-02-09T10:06:21.070Z,42.55
2023-02-09T10:07:30.980Z,40.42
2023-02-09T10:09:06.635Z,38.67
2023-02-09T10:10:18.464Z,39.45
2023-02-09T10:11:30.491Z,39.03
2023-02-09T10:12:34.448Z,39.53
2023-02-09T10:13:44.559Z,40.72
2023-02-09T10:14:47.005Z,39.27
2023-02-09T10:15:51.488Z,38.43
2023-02-09T10:16:54.092Z,39.62
2023-02-09T10:17:58.125Z,39.62
2023-02-09T10:19:06.556Z,37.27
2023-02-09T10:20:09.650Z,32.77
2023-02-09T10:21:15.479Z,34.15
2023-02-09T10:22:20.875Z,35.98
2023-02-09T10:23:32.473Z,35.62
2023-02-09T10:24:36.282Z,34.43
2023-02-09T10:26:04.234Z,32.62
2023-02-09T10:27:26.673Z,31.32
2023-02-09T10:28:32.169Z,31.87
2023-02-09T10:29:35.693Z,30.82
2023-02-09T10:30:38.203Z,32.55
2023-02-09T10:31:47.388Z,31.67
2023-02-09T10:32:51.140Z,32.13
2023-02-09T10:34:48.534Z,31.18
2023-02-09T10:36:38.232Z,33.97
2023-02-09T10:37:45.202Z,32.80
2023-02-09T10:38:52.766Z,33.47
2023-02-09T10:40:16.289Z,33.57
2023-02-09T10:41:25.418Z,32.67
2023-02-09T10:42:32.542Z,33.75
2023-02-09T10:43:36.953Z,35.03
2023-02-09T10:47:19.552Z,34.03
2023-02-09T10:48:24.288Z,33.62
2023-02-09T10:49:38.672Z,35.23
2023-02-09T10:50:56.252Z,34.45
2023-02-09T10:52:12.359Z,35.05
2023-02-09T10:53:22.714Z,34.58
2023-02-09T10:54:27.950Z,33.65
2023-02-09T10:55:36.596Z,36.45
2023-02-09T10:56:41.769Z,35.03
2023-02-09T10:57:44.135Z,34.52
2023-02-09T10:59:02.970Z,33.80
2023-02-09T11:00:17.258Z,34.85
2023-02-09T11:01:24.324Z,35.07
2023-02-09T11:02:35.571Z,34.58
2023-02-09T11:03:56.921Z,35.60
2023-02-09T11:04:59.316Z,33.05
2023-02-09T11:06:16.273Z,32.45
2023-02-09T11:07:21.984Z,33.58
2023-02-09T11:08:35.272Z,34.58
2023-02-09T11:09:45.826Z,39.08
2023-02-09T11:10:58.935Z,38.05
2023-02-09T11:12:01.631Z,37.43
2023-02-09T11:13:23.615Z,36.77
2023-02-09T11:14:26.497Z,35.30
2023-02-09T11:15:38.970Z,33.33
2023-02-09T11:16:50.080Z,30.58
2023-02-09T11:18:17.197Z,35.60
2023-02-09T11:19:35.954Z,36.05
2023-02-09T11:20:51.404Z,30.60
2023-02-09T11:22:07.074Z,24.77
2023-02-09T11:23:31.233Z,23.77
2023-02-09T11:24:36.367Z,23.85
2023-02-09T11:25:50.875Z,23.37
2023-02-09T11:27:12.911Z,21.78
2023-02-09T11:29:08.119Z,22.72
2023-02-09T11:33:19.803Z,22.63
2023-02-09T11:38:59.067Z,24.68
2023-02-09T11:40:24.066Z,23.72
2023-02-09T11:42:22.348Z,24.33
2023-02-09T11:43:38.160Z,25.32
2023-02-09T11:45:03.062Z,23.50
2023-02-09T11:46:18.429Z,22.42
2023-02-09T11:47:52.243Z,21.47
2023-02-09T11:49:18.567Z,21.87
2023-02-09T11:50:51.662Z,21.02
2023-02-09T11:52:02.760Z,19.80
2023-02-09T11:53:39.347Z,20.63
2023-02-09T11:54:47.661Z,19.75
2023-02-09T11:55:57.074Z,20.15
2023-02-09T11:57:17.150Z,21.43
2023-02-09T11:58:52.438Z,21.00
2023-02-09T11:59:59.420Z,20.80
2023-02-09T12:01:15.732Z,21.18
2023-02-09T12:02:55.496Z,20.67
2023-02-09T12:03:58.110Z,20.43
2023-02-09T12:05:02.233Z,19.30
2023-02-09T12:06:05.527Z,17.53
2023-02-09T12:07:31.886Z,16.85
2023-02-09T12:08:48.369Z,17.50
2023-02-09T12:10:30.834Z,19.38
2023-02-09T12:11:37.106Z,17.93
2023-02-09T12:12:54.210Z,18.72
2023-02-09T12:14:11.378Z,19.12
2023-02-09T12:15:22.908Z,18.48
2023-02-09T12:16:32.115Z,18.63
2023-02-09T12:17:58.678Z,18.50
2023-02-09T12:19:03.338Z,19.53
2023-02-09T12:20:07.490Z,18.47
2023-02-09T12:21:10.111Z,18.42
2023-02-09T12:22:34.387Z,19.20
2023-02-09T12:23:44.397Z,19.23
2023-02-09T12:25:23.693Z,20.13
2023-02-09T12:26:43.134Z,19.98
2023-02-09T12:28:24.459Z,20.15
2023-02-09T12:29:40.330Z,19.58
2023-02-09T12:30:42.820Z,20.38
2023-02-09T12:32:03.800Z,19.48
2023-02-09T12:33:24.496Z,19.05
2023-02-09T12:34:40.108Z,19.00
2023-02-09T12:35:43.873Z,19.63
2023-02-09T12:37:14.705Z,19.73
2023-02-09T12:38:20.317Z,19.77
2023-02-09T12:39:26.762Z,19.72
2023-02-09T12:40:37.385Z,21.15
2023-02-09T12:41:42.460Z,21.63
2023-02-09T12:43:12.208Z,20.27
2023-02-09T12:44:18.427Z,20.12
2023-02-09T12:45:41.818Z,20.40
2023-02-09T12:46:44.136Z,21.35
2023-02-09T12:47:56.719Z,19.92
2023-02-09T12:49:01.998Z,22.18
2023-02-09T12:50:05.493Z,22.85
2023-02-09T12:51:46.265Z,23.08
2023-02-09T12:53:22.504Z,25.60
2023-02-09T12:54:45.701Z,23.27
2023-02-09T12:56:01.852Z,22.68
2023-02-09T12:57:16.448Z,23.07
2023-02-09T12:58:39.094Z,23.93
2023-02-09T12:59:50.602Z,23.45
2023-02-09T13:00:56.610Z,23.58
2023-02-09T13:02:08.606Z,23.58
2023-02-09T13:03:14.012Z,23.25
2023-02-09T13:04:17.201Z,22.92
2023-02-09T13:05:25.625Z,23.93
2023-02-09T13:06:42.484Z,25.43
2023-02-09T13:10:21.737Z,23.57
2023-02-09T13:11:30.380Z,23.40
2023-02-09T13:12:41.123Z,23.45
2023-02-09T13:13:54.317Z,23.55
2023-02-09T13:14:57.670Z,24.20
2023-02-09T13:16:10.089Z,24.65
2023-02-09T13:17:44.589Z,25.53
2023-02-09T13:24:42.604Z,30.18
2023-02-09T13:25:48.496Z,28.72
2023-02-09T13:26:52.681Z,31.00
2023-02-09T13:27:55.600Z,31.20
2023-02-09T13:33:52.985Z,28.67
2023-02-09T13:35:18.902Z,28.37
2023-02-09T13:36:33.315Z,28.62
2023-02-09T13:37:54.046Z,31.48
2023-02-09T13:38:57.134Z,45.15
2023-02-09T13:40:04.410Z,47.70
2023-02-09T13:41:09.138Z,38.13
2023-02-09T13:42:22.255Z,35.12
2023-02-09T13:43:28.863Z,32.40
2023-02-09T13:44:32.170Z,31.03
2023-02-09T13:45:34.570Z,29.20
2023-02-09T13:46:37.203Z,28.80
2023-02-09T13:47:43.197Z,29.07
2023-02-09T13:48:45.726Z,32.33
2023-02-09T13:50:16.246Z,31.60
2023-02-09T13:51:21.098Z,39.23
2023-02-09T13:52:27.480Z,40.45
2023-02-09T13:53:41.872Z,29.80
2023-02-09T13:54:46.896Z,32.03
2023-02-09T13:55:55.782Z,40.93
2023-02-09T13:57:05.445Z,39.07
2023-02-09T13:58:17.912Z,38.95
2023-02-09T13:59:20.395Z,37.80
2023-02-09T14:00:28.095Z,35.97
2023-02-09T14:01:34.196Z,37.27
2023-02-09T14:02:37.926Z,35.57
2023-02-09T14:04:07.625Z,33.25
2023-02-09T14:05:10.489Z,29.28
2023-02-09T14:06:19.200Z,28.62
2023-02-09T14:07:26.171Z,28.67
2023-02-09T14:08:33.659Z,28.45
2023-02-09T14:09:59.244Z,27.93
2023-02-09T14:11:36.463Z,27.48
2023-02-09T14:13:05.791Z,27.68
2023-02-09T14:14:20.850Z,27.00
2023-02-09T14:15:58.198Z,27.63
2023-02-09T14:17:45.844Z,27.40
2023-02-09T14:18:56.112Z,28.33
2023-02-09T14:20:05.621Z,29.67
2023-02-09T14:21:10.812Z,29.42
2023-02-09T14:22:33.359Z,29.43
2023-02-09T14:23:35.819Z,30.43
2023-02-09T14:24:44.604Z,30.87
2023-02-09T14:26:02.659Z,28.85
2023-02-09T14:27:22.003Z,28.55
2023-02-09T14:28:24.824Z,27.80
2023-02-09T14:29:42.107Z,27.82
2023-02-09T14:30:50.875Z,28.60
2023-02-09T14:32:40.087Z,29.07
2023-02-09T14:33:50.366Z,27.82
2023-02-09T14:34:53.951Z,27.00
2023-02-09T14:36:01.240Z,29.18
2023-02-09T14:37:16.327Z,31.53
2023-02-09T14:38:34.353Z,30.18
2023-02-09T14:39:56.004Z,34.30
2023-02-09T14:40:59.915Z,49.95
2023-02-09T14:42:09.706Z,39.98
2023-02-09T14:43:12.116Z,36.87
2023-02-09T14:44:21.067Z,35.20
2023-02-09T14:45:29.797Z,31.03
2023-02-09T14:46:52.519Z,28.72
2023-02-09T14:47:57.522Z,27.35
2023-02-09T14:49:01.569Z,28.22
2023-02-09T14:50:13.026Z,27.63
2023-02-09T14:51:16.567Z,29.93
2023-02-09T14:52:19.092Z,33.13
2023-02-09T14:53:24.937Z,31.42
2023-02-09T14:54:30.220Z,30.03
2023-02-09T14:55:40.192Z,30.80
2023-02-09T14:56:43.224Z,29.77
2023-02-09T14:57:46.529Z,28.05